Time;durP1;ratioP1;P1;durP2;ratioP2;P2;SDS_P1;SDS_P2;PMS_P1;PMS_P2;Temp;Humidity;BMP_temperature;BMP_pressure;BME280_temperature;BME280_humidity;BME280_pressure;Samples;Min_cycle;Max_cycle;Signal;HPM_P1;HPM_P2
2023/08/18 00:00:11;;;;;;;;;;;;;;;24.40;58.40;100844.47;7399786;19;1213;-38
2023/08/18 00:02:40;;;;;;;;;;;;;;;24.37;58.50;100835.88;7398734;19;1468;-38
2023/08/18 00:05:08;;;;;;;;;;;;;;;24.50;58.37;100847.06;7397619;19;1867;-38
2023/08/18 00:07:37;;;;;;;;;;;;;;;24.55;58.37;100833.88;7397351;19;1291;-38
2023/08/18 00:10:05;;;;;;;;;;;;;;;24.65;58.27;100849.94;7398168;19;1250;-38
2023/08/18 00:12:37;;;;;;;;;;;;;;;24.53;58.33;100845.84;7397969;19;1604;-38
2023/08/18 00:15:06;;;;;;;;;;;;;;;24.52;58.47;100842.31;7397886;19;1396;-38
2023/08/18 00:17:35;;;;;;;;;;;;;;;24.45;58.82;100840.44;7397734;19;1425;-38
2023/08/18 00:20:03;;;;;;;;;;;;;;;24.52;58.52;100839.63;7397631;19;1217;-38
2023/08/18 00:22:32;;;;;;;;;;;;;;;24.74;57.09;100843.47;7397628;19;1402;-38
2023/08/18 00:25:01;;;;;;;;;;;;;;;24.78;56.45;100833.16;7398439;19;1853;-38
2023/08/18 00:27:30;;;;;;;;;;;;;;;24.84;57.24;100843.28;7396808;19;1323;-38
2023/08/18 00:30:01;;;;;;;;;;;;;;;24.89;58.16;100840.91;7396920;19;1284;-38
2023/08/18 00:32:29;;;;;;;;;;;;;;;24.58;58.54;100855.16;7398327;19;1257;-38
2023/08/18 00:34:57;;;;;;;;;;;;;;;24.47;58.64;100869.00;7396555;19;1272;-38
2023/08/18 00:37:26;;;;;;;;;;;;;;;24.60;58.21;100855.81;7397283;19;1420;-38
2023/08/18 00:39:54;;;;;;;;;;;;;;;24.79;56.99;100856.50;7397871;19;1346;-38
2023/08/18 00:42:22;;;;;;;;;;;;;;;24.85;56.66;100850.41;7397669;19;1342;-38
2023/08/18 00:44:50;;;;;;;;;;;;;;;24.90;57.43;100848.00;7398378;19;1233;-38
2023/08/18 00:47:21;;;;;;;;;;;;;;;24.91;57.75;100854.25;7396362;19;1846;-38
2023/08/18 00:49:50;;;;;;;;;;;;;;;24.96;57.39;100857.28;7398715;19;1173;-38
2023/08/18 00:52:19;;;;;;;;;;;;;;;24.93;56.58;100855.78;7396768;19;1200;-38
2023/08/18 00:54:47;;;;;;;;;;;;;;;24.82;56.04;100856.13;7396676;19;1217;-38
2023/08/18 00:57:16;;;;;;;;;;;;;;;24.80;55.96;100858.16;7396333;19;1388;-38
2023/08/18 00:59:44;;;;;;;;;;;;;;;24.80;56.05;100861.72;7397328;19;1421;-38
2023/08/18 01:02:13;;;;;;;;;;;;;;;24.91;57.54;100868.63;7396776;19;1300;-38
2023/08/18 01:04:44;;;;;;;;;;;;;;;24.94;57.59;100857.47;7397809;19;1039;-38
2023/08/18 01:07:12;;;;;;;;;;;;;;;24.88;56.35;100871.69;7394716;19;1850;-38
2023/08/18 01:09:40;;;;;;;;;;;;;;;24.83;55.71;100859.69;7395576;19;1528;-38
2023/08/18 01:12:13;;;;;;;;;;;;;;;24.81;55.48;100870.69;7396225;19;1377;-38
2023/08/18 01:14:48;;;;;;;;;;;;;;;24.85;55.92;100872.03;7395679;19;1456;-38
2023/08/18 01:17:20;;;;;;;;;;;;;;;24.91;57.46;100865.94;7395714;19;1362;-38
2023/08/18 01:19:52;;;;;;;;;;;;;;;24.95;57.15;100861.03;7396487;19;1456;-38
2023/08/18 01:22:20;;;;;;;;;;;;;;;24.90;56.80;100868.81;7396001;19;1297;-38
2023/08/18 01:24:51;;;;;;;;;;;;;;;24.84;57.46;100859.50;7394673;19;1600;-38
2023/08/18 01:27:19;;;;;;;;;;;;;;;24.79;57.96;100867.31;7393928;19;1866;-38
2023/08/18 01:29:47;;;;;;;;;;;;;;;24.61;57.96;100853.97;7395962;19;1418;-38
2023/08/18 01:32:16;;;;;;;;;;;;;;;24.53;58.28;100868.34;7395916;19;1181;-38
2023/08/18 01:34:46;;;;;;;;;;;;;;;24.81;57.32;100870.69;7393909;19;1182;-38
2023/08/18 01:37:16;;;;;;;;;;;;;;;24.83;56.46;100856.97;7394002;19;1329;-38
2023/08/18 01:39:44;;;;;;;;;;;;;;;24.81;56.24;100862.56;7394777;19;1280;-38
2023/08/18 01:42:16;;;;;;;;;;;;;;;24.84;57.47;100856.81;7393295;19;1461;-38
2023/08/18 01:44:44;;;;;;;;;;;;;;;24.74;57.65;100858.84;7395535;19;1178;-38
2023/08/18 01:47:12;;;;;;;;;;;;;;;24.57;58.03;100867.00;7393844;19;1841;-38
2023/08/18 01:49:41;;;;;;;;;;;;;;;24.61;57.92;100854.81;7393728;19;1233;-38
2023/08/18 01:52:11;;;;;;;;;;;;;;;24.79;57.40;100856.50;7394474;19;1244;-38
2023/08/18 01:54:39;;;;;;;;;;;;;;;24.91;57.13;100851.53;7395207;19;1461;-38
2023/08/18 01:57:08;;;;;;;;;;;;;;;25.02;57.03;100848.47;7393846;19;1342;-38
2023/08/18 01:59:39;;;;;;;;;;;;;;;24.92;57.23;100845.13;7392458;19;1372;-38
2023/08/18 02:02:08;;;;;;;;;;;;;;;24.61;58.05;100872.88;7395573;19;1129;-38
2023/08/18 02:04:36;;;;;;;;;;;;;;;24.59;57.74;100867.66;7394260;19;1694;-38
2023/08/18 02:07:04;;;;;;;;;;;;;;;24.55;57.79;100860.91;7392852;19;1855;-38
2023/08/18 02:09:32;;;;;;;;;;;;;;;24.66;57.47;100859.72;7394362;19;1330;-38
2023/08/18 02:12:01;;;;;;;;;;;;;;;24.85;57.02;100855.81;7394605;19;1157;-38
2023/08/18 02:14:30;;;;;;;;;;;;;;;24.85;57.08;100850.41;7394406;19;1409;-38
2023/08/18 02:17:01;;;;;;;;;;;;;;;24.82;57.09;100856.13;7395410;19;1592;-39
2023/08/18 02:19:29;;;;;;;;;;;;;;;24.87;55.80;100885.38;7394316;19;1404;-41
2023/08/18 02:21:57;;;;;;;;;;;;;;;24.80;56.11;100879.81;7394846;19;1177;-46
2023/08/18 02:24:25;;;;;;;;;;;;;;;24.79;56.18;100870.03;7394843;19;1401;-38
2023/08/18 02:26:55;;;;;;;;;;;;;;;24.75;57.09;100865.94;7394291;19;1835;-38
2023/08/18 02:29:24;;;;;;;;;;;;;;;24.89;56.44;100857.16;7395298;19;1321;-38
2023/08/18 02:31:52;;;;;;;;;;;;;;;24.86;56.20;100854.78;7395234;19;1194;-38
2023/08/18 02:34:23;;;;;;;;;;;;;;;24.85;57.13;100861.22;7394869;19;1265;-39
2023/08/18 02:36:51;;;;;;;;;;;;;;;24.91;56.80;100849.69;7393535;19;1335;-38
2023/08/18 02:39:20;;;;;;;;;;;;;;;24.87;56.48;100867.28;7394354;19;1376;-38
2023/08/18 02:41:51;;;;;;;;;;;;;;;24.77;56.17;100858.50;7393241;19;1359;-38
2023/08/18 02:44:20;;;;;;;;;;;;;;;24.76;56.09;100864.94;7393465;19;1197;-38
2023/08/18 02:46:49;;;;;;;;;;;;;;;24.65;55.85;100854.47;7395452;19;1878;-38
2023/08/18 02:49:17;;;;;;;;;;;;;;;24.72;56.52;100866.31;7400537;19;1297;-38
2023/08/18 02:51:48;;;;;;;;;;;;;;;24.68;56.27;100870.34;7401171;19;1154;-38
2023/08/18 02:54:16;;;;;;;;;;;;;;;24.72;55.60;100875.25;7400382;19;1460;-38
2023/08/18 02:56:44;;;;;;;;;;;;;;;24.74;56.02;100865.09;7398572;19;1439;-38
2023/08/18 02:59:13;;;;;;;;;;;;;;;24.74;56.05;100875.09;7400513;19;1510;-38
2023/08/18 03:01:41;;;;;;;;;;;;;;;24.76;56.67;100870.34;7401869;19;1284;-38
2023/08/18 03:04:09;;;;;;;;;;;;;;;24.70;56.35;100871.03;7400504;19;1284;-38
2023/08/18 03:06:37;;;;;;;;;;;;;;;24.68;56.46;100873.06;7400181;19;1816;-38
2023/08/18 03:09:08;;;;;;;;;;;;;;;24.64;56.25;100872.56;7398867;19;1316;-43
2023/08/18 03:11:37;;;;;;;;;;;;;;;24.67;56.57;100885.75;7400686;19;1338;-38
2023/08/18 03:14:05;;;;;;;;;;;;;;;24.69;56.67;100878.31;7400214;19;1367;-38
2023/08/18 03:16:33;;;;;;;;;;;;;;;24.69;55.99;100872.03;7400861;19;1158;-38
2023/08/18 03:19:02;;;;;;;;;;;;;;;24.64;56.32;100859.03;7399738;19;1210;-38
2023/08/18 03:21:30;;;;;;;;;;;;;;;24.67;56.36;100871.34;7397786;19;1285;-38
2023/08/18 03:23:58;;;;;;;;;;;;;;;24.64;56.22;100874.44;7399580;19;1420;-38
2023/08/18 03:26:29;;;;;;;;;;;;;;;24.67;55.66;100864.13;7401083;19;1871;-38
2023/08/18 03:28:57;;;;;;;;;;;;;;;24.72;56.07;100882.53;7400233;19;1257;-38
2023/08/18 03:31:26;;;;;;;;;;;;;;;24.66;55.79;100877.81;7397985;19;1356;-38
2023/08/18 03:33:54;;;;;;;;;;;;;;;24.70;55.23;100893.50;7400305;19;1217;-38
2023/08/18 03:36:22;;;;;;;;;;;;;;;24.69;56.20;100880.16;7399266;19;1271;-38
2023/08/18 03:38:51;;;;;;;;;;;;;;;24.64;56.13;100886.06;7399818;19;1403;-38
2023/08/18 03:41:19;;;;;;;;;;;;;;;24.64;56.09;100887.94;7398136;19;2186;-38
2023/08/18 03:43:50;;;;;;;;;;;;;;;24.60;57.57;100890.13;7399665;19;1417;-38
2023/08/18 03:46:20;;;;;;;;;;;;;;;24.66;56.20;100900.28;7399773;19;1864;-38
2023/08/18 03:48:49;;;;;;;;;;;;;;;24.59;55.96;100878.47;7398137;19;1832;-38
2023/08/18 03:51:17;;;;;;;;;;;;;;;24.60;55.82;100893.69;7398779;19;1260;-38
2023/08/18 03:53:45;;;;;;;;;;;;;;;24.68;55.31;100892.00;7398095;19;1224;-38
2023/08/18 03:56:14;;;;;;;;;;;;;;;24.68;56.21;100902.81;7397844;19;1366;-38
2023/08/18 03:58:42;;;;;;;;;;;;;;;24.63;55.46;100906.03;7397785;19;1318;-38
2023/08/18 04:01:14;;;;;;;;;;;;;;;24.59;55.80;100908.22;7399355;19;1238;-38
2023/08/18 04:03:43;;;;;;;;;;;;;;;24.69;55.20;100902.66;7399289;19;1417;-38
2023/08/18 04:06:12;;;;;;;;;;;;;;;24.70;55.12;100906.19;7397652;19;1499;-38
2023/08/18 04:08:42;;;;;;;;;;;;;;;24.70;55.30;100906.19;7397644;19;1448;-38
2023/08/18 04:11:10;;;;;;;;;;;;;;;24.73;55.65;100919.34;7397690;19;1369;-38
2023/08/18 04:13:39;;;;;;;;;;;;;;;24.72;55.45;100898.75;7397934;19;1296;-38
2023/08/18 04:16:07;;;;;;;;;;;;;;;24.72;55.23;100910.41;7397060;19;1357;-38
2023/08/18 04:18:38;;;;;;;;;;;;;;;24.75;54.90;100911.91;7398027;19;1213;-38
2023/08/18 04:21:06;;;;;;;;;;;;;;;24.84;55.24;100897.38;7396382;19;1379;-38
2023/08/18 04:23:35;;;;;;;;;;;;;;;25.01;54.95;100906.31;7397859;19;1385;-38
2023/08/18 04:26:03;;;;;;;;;;;;;;;24.90;54.99;100904.81;7397518;19;1306;-38
2023/08/18 04:28:31;;;;;;;;;;;;;;;24.69;55.92;100901.78;7395609;19;1853;-38
2023/08/18 04:31:00;;;;;;;;;;;;;;;24.67;57.13;100907.38;7397795;19;1210;-38
2023/08/18 04:33:29;;;;;;;;;;;;;;;24.86;56.66;100908.88;7397519;19;1845;-38
2023/08/18 04:36:00;;;;;;;;;;;;;;;24.61;56.66;100898.09;7397993;19;1228;-38
2023/08/18 04:38:28;;;;;;;;;;;;;;;24.90;56.79;100912.91;7397635;19;1416;-38
2023/08/18 04:40:59;;;;;;;;;;;;;;;25.02;56.56;100916.13;7394431;19;1228;-38
2023/08/18 04:43:29;;;;;;;;;;;;;;;24.86;56.66;100916.16;7397669;19;1287;-38
2023/08/18 04:45:57;;;;;;;;;;;;;;;25.00;55.71;100908.16;7394665;19;1356;-38
2023/08/18 04:48:25;;;;;;;;;;;;;;;24.87;56.19;100918.69;7392242;19;1864;-38
2023/08/18 04:50:54;;;;;;;;;;;;;;;24.80;56.26;100906.84;7393324;19;1243;-38
2023/08/18 04:53:25;;;;;;;;;;;;;;;24.73;56.39;100901.28;7391530;19;1423;-38
2023/08/18 04:55:53;;;;;;;;;;;;;;;24.70;56.65;100898.06;7392266;19;1292;-38
2023/08/18 04:58:22;;;;;;;;;;;;;;;25.12;55.91;100888.88;7392447;19;1392;-38
2023/08/18 05:00:50;;;;;;;;;;;;;;;24.97;56.23;100892.28;7393266;19;1237;-38
2023/08/18 05:03:18;;;;;;;;;;;;;;;24.85;56.51;100893.69;7391439;19;1384;-38
2023/08/18 05:05:59;;;;;;;;;;;;;;;24.72;56.67;100888.78;7392621;19;1210;-38
2023/08/18 05:08:30;;;;;;;;;;;;;;;24.76;56.74;100889.28;7389940;19;1878;-38
2023/08/18 05:10:59;;;;;;;;;;;;;;;24.72;56.80;100904.16;7390964;19;1674;-38
2023/08/18 05:13:28;;;;;;;;;;;;;;;24.94;56.40;100898.03;7392154;19;1330;-38
2023/08/18 05:15:56;;;;;;;;;;;;;;;24.92;56.90;100905.47;7391425;19;1435;-38
2023/08/18 05:18:24;;;;;;;;;;;;;;;24.91;57.09;100897.53;7392511;19;1220;-38
2023/08/18 05:20:52;;;;;;;;;;;;;;;24.86;57.58;100894.50;7392721;19;1371;-38
2023/08/18 05:23:21;;;;;;;;;;;;;;;25.09;57.36;100890.06;7394778;19;1381;-38
2023/08/18 05:25:54;;;;;;;;;;;;;;;25.13;57.40;100887.88;7395561;19;1315;-38
2023/08/18 05:28:23;;;;;;;;;;;;;;;25.16;57.27;100884.81;7396026;19;1845;-38
2023/08/18 05:30:52;;;;;;;;;;;;;;;25.12;57.61;100892.41;7396331;19;1265;-38
2023/08/18 05:33:20;;;;;;;;;;;;;;;25.14;57.89;100886.84;7395770;19;1265;-38
2023/08/18 05:35:49;;;;;;;;;;;;;;;25.29;57.21;100889.72;7395567;19;1454;-38
2023/08/18 05:38:17;;;;;;;;;;;;;;;25.36;56.88;100890.69;7394327;19;1366;-38
2023/08/18 05:40:46;;;;;;;;;;;;;;;25.31;57.14;100887.69;7393074;19;1451;-38
2023/08/18 05:43:18;;;;;;;;;;;;;;;25.32;57.14;100889.34;7394743;19;1444;-38
2023/08/18 05:45:48;;;;;;;;;;;;;;;25.43;56.94;100885.41;7394840;19;1257;-38
2023/08/18 05:48:16;;;;;;;;;;;;;;;25.40;57.20;100882.03;7392896;19;1856;-38
2023/08/18 05:50:45;;;;;;;;;;;;;;;25.48;56.34;100883.03;7395004;19;1230;-38
2023/08/18 05:53:13;;;;;;;;;;;;;;;25.45;56.87;100868.00;7393916;19;1239;-38
2023/08/18 05:55:41;;;;;;;;;;;;;;;25.51;56.71;100874.56;7395184;19;1343;-38
2023/08/18 05:58:10;;;;;;;;;;;;;;;25.59;56.23;100872.66;7394108;19;1261;-38
2023/08/18 06:00:41;;;;;;;;;;;;;;;25.69;55.79;100874.31;7391287;19;1468;-41
2023/08/18 06:03:09;;;;;;;;;;;;;;;25.86;55.66;100886.72;7392936;19;1185;-38
2023/08/18 06:05:37;;;;;;;;;;;;;;;26.01;55.54;100881.44;7386957;19;1298;-38
2023/08/18 06:08:06;;;;;;;;;;;;;;;25.99;55.73;100880.78;7391273;19;1875;-38
2023/08/18 06:10:34;;;;;;;;;;;;;;;25.80;56.38;100909.97;7393175;19;1209;-38
2023/08/18 06:13:02;;;;;;;;;;;;;;;25.78;56.56;100901.19;7393184;19;2208;-38
2023/08/18 06:15:30;;;;;;;;;;;;;;;25.82;56.79;100895.41;7394633;19;1334;-38
2023/08/18 06:18:01;;;;;;;;;;;;;;;25.83;57.14;100880.84;7393915;19;1283;-38
2023/08/18 06:20:30;;;;;;;;;;;;;;;25.78;59.85;100905.75;7396731;19;1413;-38
2023/08/18 06:22:58;;;;;;;;;;;;;;;25.78;59.54;100895.75;7399850;19;1380;-38
2023/08/18 06:25:26;;;;;;;;;;;;;;;25.76;59.60;100903.19;7401043;19;1218;-38
2023/08/18 06:27:55;;;;;;;;;;;;;;;25.76;59.12;100903.19;7399059;19;1861;-38
2023/08/18 06:30:23;;;;;;;;;;;;;;;25.76;61.49;100905.91;7400466;19;1210;-38
2023/08/18 06:32:51;;;;;;;;;;;;;;;25.66;60.52;100901.75;7399968;19;1908;-38
2023/08/18 06:35:22;;;;;;;;;;;;;;;25.70;60.61;100919.31;7400051;19;1332;-38
2023/08/18 06:37:50;;;;;;;;;;;;;;;24.93;60.17;100904.47;7400185;19;1378;-38
2023/08/18 06:40:19;;;;;;;;;;;;;;;24.54;58.45;100913.28;7398830;19;1304;-38
2023/08/18 06:42:48;;;;;;;;;;;;;;;24.41;58.28;100907.50;7396973;19;1974;-38
2023/08/18 06:45:16;;;;;;;;;;;;;;;24.34;58.85;100906.50;7400330;19;1853;-37
2023/08/18 06:47:45;;;;;;;;;;;;;;;24.54;58.62;100882.69;7394194;19;1849;-38
2023/08/18 06:50:13;;;;;;;;;;;;;;;24.45;58.43;100908.84;7395229;19;1292;-38
2023/08/18 06:52:44;;;;;;;;;;;;;;;24.41;58.42;100902.09;7394642;19;1484;-38
2023/08/18 06:55:14;;;;;;;;;;;;;;;24.28;58.47;100896.34;7397397;19;1577;-38
2023/08/18 06:57:43;;;;;;;;;;;;;;;24.26;58.39;100914.59;7391404;19;1061;-38
2023/08/18 07:00:13;;;;;;;;;;;;;;;24.22;58.20;100914.91;7394158;19;953;-38
2023/08/18 07:02:41;;;;;;;;;;;;;;;24.10;58.17;100913.53;7389354;19;1916;-38
2023/08/18 07:05:10;;;;;;;;;;;;;;;24.07;58.07;100919.25;7394795;19;1361;-38
2023/08/18 07:07:39;;;;;;;;;;;;;;;24.10;57.64;100920.81;7397331;19;1838;-38
2023/08/18 07:10:12;;;;;;;;;;;;;;;23.93;58.17;100911.81;7399532;19;979;-38
2023/08/18 07:12:40;;;;;;;;;;;;;;;24.01;57.81;100911.81;7401968;19;995;-37
2023/08/18 07:15:09;;;;;;;;;;;;;;;24.06;57.61;100933.78;7401192;19;1706;-38
2023/08/18 07:17:37;;;;;;;;;;;;;;;24.01;57.55;100909.13;7401264;19;1582;-38
2023/08/18 07:20:10;;;;;;;;;;;;;;;23.93;57.70;100917.22;7400424;19;1702;-37
2023/08/18 07:22:38;;;;;;;;;;;;;;;23.96;57.45;100909.63;7400731;19;1131;-38
2023/08/18 07:25:09;;;;;;;;;;;;;;;23.87;57.55;100898.97;7401251;19;1170;-38
2023/08/18 07:27:40;;;;;;;;;;;;;;;23.80;57.66;100905.03;7399142;19;1851;-38
2023/08/18 07:30:09;;;;;;;;;;;;;;;23.80;57.61;100899.63;7399845;19;1993;-38
2023/08/18 07:32:38;;;;;;;;;;;;;;;23.92;57.46;100910.13;7399522;19;1508;-38
2023/08/18 07:35:08;;;;;;;;;;;;;;;23.79;58.32;100908.72;7401273;19;1667;-38
2023/08/18 07:37:37;;;;;;;;;;;;;;;23.86;59.38;100916.19;7400863;19;1584;-38
2023/08/18 07:40:09;;;;;;;;;;;;;;;24.06;59.37;100906.78;7400020;19;1059;-38
2023/08/18 07:42:40;;;;;;;;;;;;;;;24.04;60.20;100911.50;7400616;19;1636;-38
2023/08/18 07:45:09;;;;;;;;;;;;;;;24.06;60.39;100904.09;7400385;19;1718;-38
2023/08/18 07:47:38;;;;;;;;;;;;;;;24.08;61.30;100912.88;7399972;19;1841;-38
2023/08/18 07:50:07;;;;;;;;;;;;;;;23.95;62.01;100921.41;7398892;19;1553;-38
2023/08/18 07:52:36;;;;;;;;;;;;;;;24.04;62.41;100930.41;7398041;19;1691;-38
2023/08/18 07:55:04;;;;;;;;;;;;;;;24.02;62.98;100908.13;7399869;19;1976;-38
2023/08/18 07:57:32;;;;;;;;;;;;;;;24.07;63.32;100924.66;7398093;19;1123;-38
2023/08/18 08:00:07;;;;;;;;;;;;;;;24.13;63.16;100924.03;7399331;19;1755;-38
2023/08/18 08:02:38;;;;;;;;;;;;;;;24.16;63.39;100925.53;7396370;19;1500;-38
2023/08/18 08:05:07;;;;;;;;;;;;;;;24.09;64.02;100919.94;7399065;19;1580;-38
2023/08/18 08:07:36;;;;;;;;;;;;;;;24.08;62.64;100928.25;7397519;19;1631;-38
2023/08/18 08:10:04;;;;;;;;;;;;;;;23.99;61.93;100935.44;7399964;19;1003;-38
2023/08/18 08:12:34;;;;;;;;;;;;;;;24.01;62.03;100928.03;7399174;19;1593;-38
2023/08/18 08:15:05;;;;;;;;;;;;;;;24.05;62.70;100932.09;7398815;19;1730;-38
2023/08/18 08:17:34;;;;;;;;;;;;;;;24.07;62.95;100964.34;7398220;19;1662;-38
2023/08/18 08:20:05;;;;;;;;;;;;;;;24.12;63.39;100943.09;7399812;19;1584;-38
2023/08/18 08:22:34;;;;;;;;;;;;;;;24.13;63.58;100926.72;7399135;19;1502;-38
2023/08/18 08:25:03;;;;;;;;;;;;;;;24.16;63.59;100926.38;7399681;19;1118;-38
2023/08/18 08:27:31;;;;;;;;;;;;;;;24.15;63.97;100930.13;7398866;19;1699;-38
2023/08/18 08:30:00;;;;;;;;;;;;;;;24.15;64.18;100927.41;7397374;19;1838;-37
2023/08/18 08:32:31;;;;;;;;;;;;;;;24.08;64.73;100939.03;7400454;19;1150;-38
2023/08/18 08:34:59;;;;;;;;;;;;;;;24.19;64.43;100919.78;7400095;19;1053;-38
2023/08/18 08:37:27;;;;;;;;;;;;;;;24.14;64.72;100920.31;7397963;19;1725;-38
2023/08/18 08:39:55;;;;;;;;;;;;;;;23.93;65.67;100909.09;7395816;19;1443;-38
2023/08/18 08:42:24;;;;;;;;;;;;;;;24.04;65.40;100925.00;7397131;19;1254;-38
2023/08/18 08:44:53;;;;;;;;;;;;;;;24.10;64.19;100921.66;7396014;19;1292;-38
2023/08/18 08:47:21;;;;;;;;;;;;;;;23.87;64.11;100907.06;7397240;19;1330;-38
2023/08/18 08:49:58;;;;;;;;;;;;;;;23.96;63.54;100920.44;7396730;19;1858;-38
2023/08/18 08:52:26;;;;;;;;;;;;;;;24.06;64.32;100931.09;7395870;19;1487;-38
2023/08/18 08:54:55;;;;;;;;;;;;;;;23.99;64.88;100920.13;7398108;19;1110;-38
2023/08/18 08:57:24;;;;;;;;;;;;;;;23.90;65.08;100925.66;7395912;19;1786;-38
2023/08/18 08:59:53;;;;;;;;;;;;;;;24.15;64.47;100973.34;7398094;19;1392;-38
2023/08/18 09:02:21;;;;;;;;;;;;;;;24.04;64.79;100933.13;7397674;19;1272;-38
2023/08/18 09:04:52;;;;;;;;;;;;;;;23.93;65.09;100933.41;7397740;19;1138;-38
2023/08/18 09:07:20;;;;;;;;;;;;;;;23.96;65.29;100938.50;7398042;19;1296;-38
2023/08/18 09:09:49;;;;;;;;;;;;;;;24.04;65.39;100929.56;7394572;19;1898;-38
2023/08/18 09:12:18;;;;;;;;;;;;;;;23.95;65.42;100934.09;7397365;19;1306;-38
2023/08/18 09:14:46;;;;;;;;;;;;;;;23.98;65.37;100933.78;7397093;19;1210;-38
2023/08/18 09:17:15;;;;;;;;;;;;;;;23.90;65.66;100925.66;7396809;19;1384;-38
2023/08/18 09:19:43;;;;;;;;;;;;;;;23.93;65.34;100919.91;7397403;19;1393;-38
2023/08/18 09:22:14;;;;;;;;;;;;;;;24.04;64.45;100922.31;7396553;19;1130;-38
2023/08/18 09:24:42;;;;;;;;;;;;;;;24.07;63.92;100940.88;7396393;19;1274;-38
2023/08/18 09:27:11;;;;;;;;;;;;;;;24.05;64.07;100915.88;7396271;19;1402;-38
2023/08/18 09:29:40;;;;;;;;;;;;;;;24.02;65.10;100910.81;7395228;19;1841;-38
2023/08/18 09:32:10;;;;;;;;;;;;;;;23.94;65.42;100917.06;7396989;19;1400;-38
2023/08/18 09:34:39;;;;;;;;;;;;;;;24.10;64.94;100910.84;7393779;19;1517;-38
2023/08/18 09:37:07;;;;;;;;;;;;;;;24.08;64.91;100895.81;7395036;19;1365;-38
2023/08/18 09:39:38;;;;;;;;;;;;;;;23.98;65.24;100902.19;7395578;19;1472;-37
2023/08/18 09:42:08;;;;;;;;;;;;;;;23.96;65.21;100884.47;7397038;19;1381;-38
2023/08/18 09:44:37;;;;;;;;;;;;;;;23.95;65.37;100882.78;7395756;19;1321;-38
2023/08/18 09:47:06;;;;;;;;;;;;;;;23.92;65.63;100872.31;7395731;19;1345;-38
2023/08/18 09:49:36;;;;;;;;;;;;;;;23.93;65.51;100874.00;7394545;19;1839;-38
2023/08/18 09:52:05;;;;;;;;;;;;;;;23.88;65.65;100862.84;7395142;19;1512;-38
2023/08/18 09:54:34;;;;;;;;;;;;;;;23.90;65.76;100866.22;7395196;19;1384;-38
2023/08/18 09:57:08;;;;;;;;;;;;;;;23.95;65.22;100839.56;7400045;19;1408;-38
2023/08/18 09:59:38;;;;;;;;;;;;;;;23.83;65.10;100841.72;7404330;19;1265;-38
2023/08/18 10:02:08;;;;;;;;;;;;;;;23.88;63.91;100843.94;7404414;19;1067;-38
2023/08/18 10:04:40;;;;;;;;;;;;;;;23.97;63.92;100840.22;7402384;19;1297;-37
2023/08/18 10:07:09;;;;;;;;;;;;;;;24.02;64.62;100843.28;7402860;19;1767;-38
2023/08/18 10:09:38;;;;;;;;;;;;;;;23.97;65.54;100837.53;7400135;19;1842;-38
2023/08/18 10:12:09;;;;;;;;;;;;;;;23.86;65.79;100864.88;7402531;19;1213;-38
2023/08/18 10:14:38;;;;;;;;;;;;;;;24.00;65.10;100904.75;7402828;19;1413;-38
2023/08/18 10:17:07;;;;;;;;;;;;;;;24.14;64.57;100895.97;7402408;19;1349;-38
2023/08/18 10:19:54;;;;;;;;;;;;;;;23.95;65.10;100886.31;7403870;19;1439;-38
2023/08/18 10:22:24;;;;;;;;;;;;;;;23.77;66.02;100869.38;7403538;19;1384;-38
2023/08/18 10:24:53;;;;;;;;;;;;;;;23.79;65.91;100857.41;7400142;19;1375;-38
2023/08/18 10:27:36;;;;;;;;;;;;;;;23.88;65.64;100846.66;7401997;19;1796;-38
2023/08/18 10:30:25;;;;;;;;;;;;;;;23.85;65.71;100852.38;7399810;19;1861;-38
2023/08/18 10:33:00;;;;;;;;;;;;;;;23.89;65.54;100856.44;7402352;19;1467;-38
2023/08/18 10:35:29;;;;;;;;;;;;;;;23.85;65.64;100841.56;7401440;19;1302;-38
2023/08/18 10:37:58;;;;;;;;;;;;;;;23.91;63.97;100838.19;7399452;19;1300;-38
2023/08/18 10:40:27;;;;;;;;;;;;;;;23.99;62.98;100832.81;7398530;19;1364;-38
2023/08/18 10:43:01;;;;;;;;;;;;;;;23.97;64.28;100840.22;7397592;19;1396;-38
2023/08/18 10:45:30;;;;;;;;;;;;;;;24.01;64.33;100847.84;7402377;19;1272;-38
2023/08/18 10:48:03;;;;;;;;;;;;;;;23.98;64.69;100821.16;7403008;19;1616;-38
2023/08/18 10:50:32;;;;;;;;;;;;;;;24.02;64.83;100835.19;7399854;19;1849;-38
2023/08/18 10:53:01;;;;;;;;;;;;;;;23.94;65.00;100835.19;7398907;19;1800;-38
2023/08/18 10:55:30;;;;;;;;;;;;;;;23.81;65.53;100846.44;7401013;19;1524;-38
2023/08/18 10:57:58;;;;;;;;;;;;;;;23.97;65.11;100878.91;7401178;19;1158;-38
2023/08/18 11:00:27;;;;;;;;;;;;;;;23.96;64.99;100838.56;7402045;19;1067;-38
2023/08/18 11:02:55;;;;;;;;;;;;;;;23.90;65.38;100861.66;7401033;19;1482;-38
2023/08/18 11:05:26;;;;;;;;;;;;;;;23.93;65.03;100855.09;7400773;19;1503;-38
2023/08/18 11:07:55;;;;;;;;;;;;;;;24.03;64.88;100842.25;7397089;19;1547;-38
2023/08/18 11:10:24;;;;;;;;;;;;;;;23.96;64.86;100847.50;7398286;19;1907;-38
2023/08/18 11:12:55;;;;;;;;;;;;;;;23.91;65.12;100849.00;7399668;19;1376;-38
2023/08/18 11:15:24;;;;;;;;;;;;;;;23.89;63.69;100837.53;7398651;19;1807;-38
2023/08/18 11:17:53;;;;;;;;;;;;;;;23.84;63.61;100834.50;7399963;19;1313;-38
2023/08/18 11:20:21;;;;;;;;;;;;;;;23.83;64.28;100830.94;7399857;19;1462;-38
2023/08/18 11:22:53;;;;;;;;;;;;;;;23.89;64.77;100842.94;7400171;19;1494;-38
2023/08/18 11:25:23;;;;;;;;;;;;;;;23.92;64.81;100827.25;7400532;19;1310;-38
2023/08/18 11:27:52;;;;;;;;;;;;;;;23.94;64.94;100829.78;7400898;19;1400;-38
2023/08/18 11:30:21;;;;;;;;;;;;;;;23.99;64.66;100852.59;7400165;19;1845;-38
2023/08/18 11:32:49;;;;;;;;;;;;;;;23.86;65.06;100816.28;7398363;19;1695;-38
2023/08/18 11:35:21;;;;;;;;;;;;;;;23.88;65.11;100835.84;7397267;19;1784;-38
2023/08/18 11:37:52;;;;;;;;;;;;;;;24.04;64.53;100818.81;7398855;19;1325;-38
2023/08/18 11:40:21;;;;;;;;;;;;;;;23.93;64.62;100833.47;7399065;19;1726;-38
2023/08/18 11:42:51;;;;;;;;;;;;;;;23.93;65.04;100825.38;7400942;19;1385;-38
2023/08/18 11:45:19;;;;;;;;;;;;;;;24.21;64.17;100821.34;7397686;19;1400;-37
2023/08/18 11:47:49;;;;;;;;;;;;;;;24.03;64.56;100815.25;7400033;19;1400;-38
2023/08/18 11:50:21;;;;;;;;;;;;;;;24.02;64.62;100818.97;7398194;19;1846;-37
2023/08/18 11:52:53;;;;;;;;;;;;;;;23.92;63.31;100829.94;7398863;19;1275;-38
2023/08/18 11:55:31;;;;;;;;;;;;;;;23.84;63.04;100848.00;7399710;19;1448;-38
2023/08/18 11:57:59;;;;;;;;;;;;;;;23.93;63.92;100844.28;7400460;19;1402;-38
2023/08/18 12:00:34;;;;;;;;;;;;;;;24.17;64.23;100846.16;7400756;19;1139;-38
2023/08/18 12:03:03;;;;;;;;;;;;;;;24.03;64.37;100850.38;7400121;19;1353;-38
2023/08/18 12:05:31;;;;;;;;;;;;;;;24.09;64.59;100844.28;7399025;19;1347;-38
2023/08/18 12:08:04;;;;;;;;;;;;;;;24.16;64.16;100839.91;7399204;19;1337;-38
2023/08/18 12:10:33;;;;;;;;;;;;;;;24.08;64.58;100842.63;7398303;19;1841;-38
2023/08/18 12:13:01;;;;;;;;;;;;;;;23.91;64.91;100835.50;7396495;19;1177;-38
2023/08/18 12:15:29;;;;;;;;;;;;;;;23.97;64.48;100841.09;7398498;19;1039;-38
2023/08/18 12:18:13;;;;;;;;;;;;;;;24.05;64.24;100842.94;7396250;19;1842;-38
2023/08/18 12:20:42;;;;;;;;;;;;;;;23.94;64.47;100825.22;7397688;19;1507;-38
2023/08/18 12:23:13;;;;;;;;;;;;;;;24.10;64.41;100829.78;7397156;19;1269;-38
2023/08/18 12:25:42;;;;;;;;;;;;;;;24.17;64.17;100822.72;7397631;19;1274;-38
2023/08/18 12:28:11;;;;;;;;;;;;;;;24.06;64.47;100823.03;7398395;19;1409;-39
2023/08/18 12:30:40;;;;;;;;;;;;;;;23.97;63.72;100837.53;7396656;19;1859;-38
2023/08/18 12:33:08;;;;;;;;;;;;;;;23.89;63.44;100830.25;7397311;19;1428;-38
2023/08/18 12:35:36;;;;;;;;;;;;;;;23.90;64.61;100820.31;7398024;19;1295;-38
2023/08/18 12:38:05;;;;;;;;;;;;;;;24.07;65.33;100823.88;7396616;19;1275;-38
2023/08/18 12:40:35;;;;;;;;;;;;;;;24.07;65.89;100824.72;7397217;19;1325;-38
2023/08/18 12:43:04;;;;;;;;;;;;;;;24.07;66.49;100824.72;7396404;19;1249;-50
2023/08/18 12:45:32;;;;;;;;;;;;;;;23.95;66.56;100850.34;7396387;19;1170;-38
2023/08/18 12:48:00;;;;;;;;;;;;;;;24.19;66.40;100800.91;7396010;19;1252;-38
2023/08/18 12:50:28;;;;;;;;;;;;;;;24.09;66.50;100801.06;7394848;19;1838;-38
2023/08/18 12:52:57;;;;;;;;;;;;;;;24.03;67.10;100793.63;7395780;19;1425;-38
2023/08/18 12:55:25;;;;;;;;;;;;;;;24.03;67.25;100747.72;7396958;19;1110;-38
2023/08/18 12:57:56;;;;;;;;;;;;;;;23.99;67.47;100747.25;7393299;19;1256;-38